createdAt,value
2019-03-04T00:04:58.726Z,27.70
2019-03-04T00:10:02.249Z,22.02
2019-03-04T00:15:06.119Z,22.98
2019-03-04T00:20:09.423Z,21.52
2019-03-04T00:25:12.732Z,22.75
2019-03-04T00:30:16.089Z,20.40
2019-03-04T00:35:19.863Z,18.25
2019-03-04T00:40:24.135Z,19.42
2019-03-04T00:45:27.427Z,16.45
2019-03-04T00:50:31.074Z,19.32
2019-03-04T00:55:35.033Z,20.45
2019-03-04T01:00:40.113Z,16.27
2019-03-04T01:05:43.661Z,17.92
2019-03-04T01:10:47.162Z,16.62
2019-03-04T01:15:51.056Z,18.00
2019-03-04T01:20:55.497Z,21.05
2019-03-04T01:25:59.921Z,19.25
2019-03-04T01:31:03.339Z,19.07
2019-03-04T01:36:08.300Z,19.32
2019-03-04T01:41:11.793Z,12.20
2019-03-04T01:46:16.923Z,16.87
2019-03-04T01:51:23.116Z,20.40
2019-03-04T01:56:26.712Z,16.25
2019-03-04T02:01:30.085Z,16.77
2019-03-04T02:06:33.905Z,16.87
2019-03-04T02:11:40.850Z,14.20
2019-03-04T02:16:45.195Z,13.70
2019-03-04T02:21:48.762Z,14.18
2019-03-04T02:26:53.896Z,12.03
2019-03-04T02:31:57.746Z,15.32
2019-03-04T02:37:01.434Z,16.52
2019-03-04T02:42:05.117Z,17.67
2019-03-04T02:47:08.436Z,12.37
2019-03-04T02:52:11.758Z,19.75
2019-03-04T02:57:15.053Z,14.18
2019-03-04T03:02:18.992Z,16.75
2019-03-04T03:07:22.395Z,18.40
2019-03-04T03:12:26.052Z,15.78
2019-03-04T03:17:29.448Z,15.13
2019-03-04T03:22:32.766Z,11.03
2019-03-04T03:27:36.133Z,14.05
2019-03-04T03:32:39.551Z,14.05
2019-03-04T03:37:43.574Z,14.23
2019-03-04T03:42:47.221Z,13.68
2019-03-04T03:47:50.930Z,12.10
2019-03-04T03:52:54.211Z,13.72
2019-03-04T03:57:58.028Z,12.28
2019-03-04T04:03:02.110Z,12.05
2019-03-04T04:08:05.445Z,11.73
2019-03-04T04:13:08.922Z,9.43
2019-03-04T04:18:12.313Z,12.58
2019-03-04T04:23:15.968Z,13.30
2019-03-04T04:28:19.622Z,12.28
2019-03-04T04:33:23.578Z,11.38
2019-03-04T04:38:26.953Z,12.25
2019-03-04T04:43:30.891Z,13.30
2019-03-04T04:48:34.194Z,10.08
2019-03-04T04:53:37.522Z,10.58
2019-03-04T04:58:40.844Z,9.85
2019-03-04T05:03:44.166Z,11.15
2019-03-04T05:08:48.822Z,11.57
2019-03-04T05:13:52.544Z,9.00
2019-03-04T05:18:56.575Z,10.20
2019-03-04T05:23:59.906Z,10.68
2019-03-04T05:29:03.231Z,10.10
2019-03-04T05:34:06.577Z,14.13
2019-03-04T05:39:11.102Z,9.23
2019-03-04T05:44:14.452Z,12.70
2019-03-04T05:49:17.771Z,9.75
2019-03-04T05:54:22.092Z,10.32
2019-03-04T05:59:25.428Z,11.05
2019-03-04T06:04:28.997Z,13.48
2019-03-04T06:09:32.410Z,15.23
2019-03-04T06:14:35.945Z,12.82
2019-03-04T06:19:39.397Z,10.58
2019-03-04T06:24:42.840Z,14.53
2019-03-04T06:29:46.146Z,11.55
2019-03-04T06:34:50.313Z,13.28
2019-03-04T06:39:53.741Z,14.80
2019-03-04T06:44:58.320Z,13.72
2019-03-04T06:50:28.210Z,12.25
2019-03-04T06:56:22.276Z,11.60
2019-03-04T07:01:36.202Z,12.15
2019-03-04T07:06:39.536Z,12.82
2019-03-04T07:11:50.730Z,13.55
2019-03-04T07:16:54.676Z,10.10
2019-03-04T07:21:58.687Z,10.38
2019-03-04T07:27:02.409Z,12.88
2019-03-04T07:32:06.557Z,9.80
2019-03-04T07:37:10.598Z,10.78
2019-03-04T07:42:14.112Z,11.88
2019-03-04T07:47:18.598Z,12.10
2019-03-04T07:52:22.558Z,14.90
2019-03-04T07:57:25.865Z,14.40
2019-03-04T08:02:29.180Z,7.85
2019-03-04T08:07:44.973Z,9.78
2019-03-04T08:13:20.929Z,10.32
2019-03-04T08:18:24.806Z,9.88
2019-03-04T08:23:28.116Z,9.50
2019-03-04T08:28:31.417Z,12.55
2019-03-04T08:33:34.735Z,10.88
2019-03-04T08:38:38.080Z,6.70
2019-03-04T08:43:42.019Z,8.58
2019-03-04T08:48:45.750Z,10.72
2019-03-04T08:53:49.188Z,7.05
2019-03-04T08:58:52.659Z,10.60
2019-03-04T09:03:56.123Z,8.85
2019-03-04T09:09:01.296Z,8.53
2019-03-04T09:14:05.062Z,10.43
2019-03-04T09:19:08.606Z,13.00
2019-03-04T09:24:11.975Z,7.08
2019-03-04T09:29:16.049Z,12.15
2019-03-04T09:34:21.236Z,8.08
2019-03-04T09:39:24.589Z,9.43
2019-03-04T09:44:28.808Z,7.97
2019-03-04T09:49:32.378Z,6.80
2019-03-04T09:54:35.859Z,8.75
2019-03-04T09:59:39.446Z,7.30
2019-03-04T10:05:41.190Z,6.62
2019-03-04T10:11:58.660Z,7.40
2019-03-04T10:17:46.359Z,5.80
2019-03-04T10:23:31.699Z,7.22
2019-03-04T10:29:49.520Z,9.08
2019-03-04T10:35:53.919Z,7.00
2019-03-04T10:42:01.053Z,6.62
2019-03-04T10:47:04.956Z,13.25
2019-03-04T10:52:08.745Z,4.92
2019-03-04T10:57:12.273Z,8.78
2019-03-04T11:02:16.199Z,7.67
2019-03-04T11:07:19.719Z,4.45
2019-03-04T11:12:23.468Z,8.55
2019-03-04T11:17:26.837Z,8.23
2019-03-04T11:22:30.167Z,5.87
2019-03-04T11:27:33.588Z,7.08
2019-03-04T11:32:37.652Z,5.42
2019-03-04T11:37:43.937Z,4.87
2019-03-04T11:42:47.265Z,5.55
2019-03-04T11:47:50.578Z,5.60
2019-03-04T11:52:54.034Z,5.95
2019-03-04T11:57:57.505Z,5.00
2019-03-04T12:03:00.823Z,6.47
2019-03-04T12:08:04.369Z,4.95
2019-03-04T12:13:08.474Z,7.12
2019-03-04T12:18:11.688Z,5.53
2019-03-04T12:23:15.251Z,4.58
2019-03-04T12:28:20.575Z,6.75
2019-03-04T12:33:23.988Z,3.83
2019-03-04T12:38:27.443Z,4.67
2019-03-04T12:43:31.286Z,8.20
2019-03-04T12:48:34.842Z,5.33
2019-03-04T12:53:39.464Z,5.47
2019-03-04T12:58:42.839Z,6.80
2019-03-04T13:03:46.233Z,11.38
2019-03-04T13:08:49.590Z,5.78
2019-03-04T13:13:53.392Z,8.15
2019-03-04T13:18:57.091Z,4.10
2019-03-04T13:24:00.720Z,5.30
2019-03-04T13:29:05.067Z,6.45
2019-03-04T13:34:08.847Z,7.50
2019-03-04T13:39:13.061Z,5.28
2019-03-04T13:44:16.738Z,9.48
2019-03-04T13:49:20.329Z,5.17
2019-03-04T13:54:24.502Z,7.70
2019-03-04T13:59:27.834Z,6.83
2019-03-04T14:04:31.335Z,8.93
2019-03-04T14:09:34.795Z,10.10
2019-03-04T14:14:40.298Z,8.40
2019-03-04T14:19:44.063Z,8.10
2019-03-04T14:24:47.357Z,10.55
2019-03-04T14:29:51.099Z,6.25
2019-03-04T14:34:54.423Z,5.78
2019-03-04T14:39:58.213Z,6.50
2019-03-04T14:45:02.009Z,6.15
2019-03-04T14:50:10.356Z,7.20
2019-03-04T14:55:16.868Z,6.65
2019-03-04T15:00:27.102Z,6.42
2019-03-04T15:05:31.173Z,7.05
2019-03-04T15:10:34.545Z,7.25
2019-03-04T15:15:38.216Z,5.80
2019-03-04T15:20:41.600Z,5.83
2019-03-04T15:25:44.967Z,8.83
2019-03-04T15:30:54.388Z,7.53
2019-03-04T15:35:58.655Z,7.10
2019-03-04T15:41:02.412Z,5.25
2019-03-04T15:46:06.376Z,4.87
2019-03-04T15:51:09.746Z,10.80
2019-03-04T15:56:13.059Z,6.70
2019-03-04T16:01:16.831Z,6.42
2019-03-04T16:06:20.791Z,8.15
2019-03-04T16:11:24.785Z,6.72
2019-03-04T16:16:28.134Z,11.00
2019-03-04T16:21:31.431Z,8.30
2019-03-04T16:26:34.971Z,11.22
2019-03-04T16:31:38.357Z,11.48
2019-03-04T16:36:41.710Z,7.55
2019-03-04T16:41:45.170Z,9.60
2019-03-04T16:46:50.122Z,8.15
2019-03-04T16:51:54.015Z,11.70
2019-03-04T16:56:57.737Z,7.70
2019-03-04T17:02:01.092Z,17.23
2019-03-04T17:07:05.167Z,12.80
2019-03-04T17:12:08.684Z,10.58
2019-03-04T17:17:12.959Z,10.45
2019-03-04T17:22:16.677Z,13.60
2019-03-04T17:27:21.164Z,11.30
2019-03-04T17:32:25.693Z,10.85
2019-03-04T17:37:29.409Z,9.48
2019-03-04T17:42:34.733Z,8.35
2019-03-04T17:47:39.266Z,5.93
2019-03-04T17:52:44.111Z,9.13
2019-03-04T17:57:47.462Z,12.50
2019-03-04T18:02:51.816Z,5.17
2019-03-04T18:07:55.116Z,5.78
2019-03-04T18:12:58.485Z,4.40
2019-03-04T18:18:02.122Z,3.65
2019-03-04T18:23:06.475Z,5.33
2019-03-04T18:28:17.001Z,2.58
2019-03-04T18:33:48.633Z,4.17
2019-03-04T18:39:40.345Z,8.73
2019-03-04T18:45:47.800Z,10.45
2019-03-04T18:50:51.469Z,6.43
2019-03-04T18:55:55.256Z,8.58
2019-03-04T19:00:58.961Z,4.83
2019-03-04T19:06:02.827Z,4.97
2019-03-04T19:11:06.160Z,3.72
2019-03-04T19:16:09.884Z,7.92
2019-03-04T19:21:13.197Z,6.95
2019-03-04T19:26:17.958Z,6.00
2019-03-04T19:31:21.294Z,5.70
2019-03-04T19:36:24.577Z,6.20
2019-03-04T19:41:28.195Z,6.25
2019-03-04T19:46:32.991Z,10.50
2019-03-04T19:51:36.414Z,10.10
2019-03-04T19:56:40.563Z,7.75
2019-03-04T20:01:44.394Z,8.53
2019-03-04T20:06:48.381Z,7.08
2019-03-04T20:11:51.831Z,13.35
2019-03-04T20:16:55.377Z,12.98
2019-03-04T20:21:58.704Z,6.53
2019-03-04T20:27:02.039Z,7.10
2019-03-04T20:32:05.599Z,7.12
2019-03-04T20:37:09.143Z,4.80
2019-03-04T20:42:12.502Z,6.25
2019-03-04T20:47:16.871Z,8.28
2019-03-04T20:52:20.478Z,7.70
2019-03-04T20:57:23.800Z,8.63
2019-03-04T21:02:28.323Z,7.95
2019-03-04T21:07:31.779Z,7.10
2019-03-04T21:12:35.784Z,8.63
2019-03-04T21:17:39.444Z,8.90
2019-03-04T21:22:43.039Z,8.00
2019-03-04T21:27:46.787Z,7.25
2019-03-04T21:33:14.769Z,7.55
2019-03-04T21:38:21.504Z,6.15
2019-03-04T21:43:41.463Z,9.73
2019-03-04T21:48:53.377Z,4.58
2019-03-04T21:53:56.822Z,6.42
2019-03-04T21:59:00.646Z,11.95
2019-03-04T22:04:04.117Z,6.60
2019-03-04T22:09:08.532Z,2.02
2019-03-04T22:14:12.185Z,5.33
2019-03-04T22:19:16.302Z,2.80
2019-03-04T22:24:19.685Z,8.68
2019-03-04T22:29:24.789Z,4.22
2019-03-04T22:34:28.101Z,3.65
2019-03-04T22:39:32.256Z,2.90
2019-03-04T22:44:35.725Z,0.53
2019-03-04T22:49:39.739Z,2.08
2019-03-04T22:54:43.635Z,3.17
2019-03-04T22:59:46.905Z,5.10
2019-03-04T23:05:02.794Z,1.12
2019-03-04T23:10:44.901Z,2.22
2019-03-04T23:15:50.466Z,2.90
2019-03-04T23:20:54.668Z,4.12
2019-03-04T23:25:58.046Z,2.22
2019-03-04T23:31:01.310Z,2.95
2019-03-04T23:36:04.689Z,1.85
2019-03-04T23:41:10.009Z,3.52
2019-03-04T23:46:13.314Z,1.60
2019-03-04T23:51:16.636Z,3.90
2019-03-04T23:56:20.841Z,1.80
